Terminal Aerodrome Forecast
Issued by NWS

Home | Current Version | Previous Version | Text Only | Print | Product List | Glossary Off
Versions: 1 2 3 4 5 6 7 8 9 10 11 12 13 14 15 16 17 18

496
FTUS43 KICT 290322 AAB
TAFHUT
TAF AMD
KHUT 290322Z 2903/2924 03007KT P6SM VCTS SCT070CB OVC150
      TEMPO 2903/2906 6SM -TSRA BKN060CB
     FM290600 04009KT P6SM VCTS SCT050CB OVC150
      TEMPO 2906/2909 6SM -TSRA BKN035CB
     FM290900 05017KT P6SM VCSH OVC015=

USA.gov is the U.S. government's official web portal to all federal, state and local government web resources and services.